Terminal Aerodrome Forecast
Issued by NWS

Home | Current Version | Previous Version | Text Only | Print | Product List | Glossary On
Versions: 1 2 3 4 5 6 7 8 9 10 11 12 13 14 15 16 17 18 19 20 21 22 23 24
000
FTUS41 KGYX 281120
TAFRKD
TAF
KRKD 281120Z 2812/2912 21005KT P6SM BKN003 OVC050
     FM281300 20006KT P6SM SCT050 BKN100 PROB30 2822/2902 3SM -TSRA
      BKN050CB
     FM290500 VRB03KT 1/2SM FG VV002
      AMD LTD TO CLD VIS AND WIND=

USA.gov is the U.S. government's official web portal to all federal, state and local government web resources and services.